Time;durP1;ratioP1;P1;durP2;ratioP2;P2;SDS_P1;SDS_P2;PMS_P1;PMS_P2;Temp;Humidity;BMP_temperature;BMP_pressure;BME280_temperature;BME280_humidity;BME280_pressure;Samples;Min_cycle;Max_cycle;Signal;HPM_P1;HPM_P2
2023/04/13 00:01:24;;;;;;;3.07;1.93;;;;;;;5.20;100.00;99705.41;4983308;28;20209;-72
2023/04/13 00:03:50;;;;;;;4.80;1.97;;;;;;;5.74;100.00;99786.47;4984833;28;20625;-72
2023/04/13 00:06:16;;;;;;;3.83;1.50;;;;;;;5.94;100.00;99813.25;4985034;28;20193;-72
2023/04/13 00:08:42;;;;;;;2.10;1.50;;;;;;;5.92;100.00;99807.25;4966267;28;20465;-72
2023/04/13 00:11:08;;;;;;;3.50;1.73;;;;;;;5.89;100.00;99786.34;4968443;28;20283;-72
2023/04/13 00:13:39;;;;;;;4.20;2.30;;;;;;;5.78;100.00;99790.38;4965971;28;20455;-72
2023/04/13 00:16:07;;;;;;;3.20;1.80;;;;;;;5.73;100.00;99792.81;4965900;28;20464;-72
2023/04/13 00:18:33;;;;;;;4.20;1.57;;;;;;;5.64;100.00;99778.81;4982666;28;20458;-72
2023/04/13 00:20:59;;;;;;;3.90;2.67;;;;;;;5.42;100.00;99755.91;4982431;28;20831;-72
2023/04/13 00:23:24;;;;;;;4.80;1.83;;;;;;;5.75;100.00;99782.78;4964819;28;20608;-72
2023/04/13 00:25:50;;;;;;;3.97;2.10;;;;;;;5.44;100.00;99776.00;4983474;28;20190;-72
2023/04/13 00:28:17;;;;;;;4.00;1.70;;;;;;;5.24;100.00;99710.38;4982332;28;20186;-72
2023/04/13 00:30:42;;;;;;;2.13;1.63;;;;;;;5.87;100.00;99777.75;4963434;28;20233;-72
2023/04/13 00:33:08;;;;;;;4.03;2.23;;;;;;;5.32;100.00;99742.97;4980348;28;20909;-72
2023/04/13 00:35:33;;;;;;;4.97;2.50;;;;;;;5.42;100.00;99761.22;4980606;28;20245;-72
2023/04/13 00:38:01;;;;;;;4.40;2.20;;;;;;;5.61;100.00;99775.69;4981978;28;20273;-72
2023/04/13 00:40:28;;;;;;;2.40;1.93;;;;;;;5.19;100.00;99700.28;4967071;28;20178;-72
2023/04/13 00:42:54;;;;;;;4.27;2.07;;;;;;;5.38;100.00;99757.28;4965797;28;21286;-72
2023/04/13 00:45:19;;;;;;;4.33;2.37;;;;;;;5.12;100.00;99704.72;4981100;28;20457;-72
2023/04/13 00:47:47;;;;;;;2.80;2.13;;;;;;;5.20;100.00;99681.47;4964358;28;20192;-72
2023/04/13 00:50:15;;;;;;;5.63;1.90;;;;;;;5.15;100.00;99665.31;4981848;28;20191;-72
2023/04/13 00:52:41;;;;;;;3.70;2.07;;;;;;;5.02;100.00;99641.25;4982004;28;20460;-72
2023/04/13 00:55:07;;;;;;;2.97;2.17;;;;;;;4.91;100.00;99599.25;4965496;28;20425;-72
2023/04/13 00:57:34;;;;;;;2.60;1.97;;;;;;;5.10;100.00;99632.34;4981647;28;20803;-72
2023/04/13 01:00:05;;;;;;;5.30;2.93;;;;;;;5.26;100.00;99687.84;4982976;28;20448;-72
2023/04/13 01:02:31;;;;;;;3.93;2.10;;;;;;;5.20;100.00;99657.56;4971325;28;20429;-72
2023/04/13 01:04:57;;;;;;;3.33;2.20;;;;;;;5.33;100.00;99669.31;4979027;28;20439;-72
2023/04/13 01:07:48;;;;;;;3.30;2.30;;;;;;;5.09;100.00;99622.69;4982009;28;20683;-72
2023/04/13 01:10:29;;;;;;;3.60;2.20;;;;;;;5.61;100.00;99701.22;4981472;28;20189;-72
2023/04/13 01:13:15;;;;;;;3.17;2.20;;;;;;;5.65;100.00;99699.81;4965382;28;21002;-73
2023/04/13 01:15:51;;;;;;;4.03;2.23;;;;;;;5.47;100.00;99692.34;4981069;28;20502;-72
2023/04/13 01:18:17;;;;;;;4.10;2.50;;;;;;;5.44;100.00;99674.13;4965697;28;20437;-72
2023/04/13 01:20:45;;;;;;;3.60;2.43;;;;;;;5.14;100.00;99633.59;4979525;28;20469;-72
2023/04/13 01:23:34;;;;;;;5.30;2.70;;;;;;;5.12;100.00;99617.00;4964063;28;20986;-72
2023/04/13 01:26:05;;;;;;;4.23;2.50;;;;;;;5.06;100.00;99642.50;4981300;28;20459;-73
2023/04/13 01:28:33;;;;;;;3.97;1.87;;;;;;;4.98;100.00;99598.31;4982048;28;20441;-72
2023/04/13 01:31:00;;;;;;;6.43;3.40;;;;;;;5.38;100.00;99667.72;4963960;28;20924;-72
2023/04/13 01:33:29;;;;;;;4.80;2.43;;;;;;;5.57;100.00;99679.50;4963480;28;21065;-72
2023/04/13 01:35:55;;;;;;;4.10;2.63;;;;;;;5.19;100.00;99604.59;4964247;28;20452;-72
2023/04/13 01:38:24;;;;;;;3.67;2.70;;;;;;;4.76;100.00;99524.97;4979903;28;20446;-72
2023/04/13 01:40:49;;;;;;;4.03;2.90;;;;;;;5.11;100.00;99580.81;4963467;28;20956;-72
2023/04/13 01:43:15;;;;;;;2.97;2.27;;;;;;;5.82;100.00;99674.56;4980764;28;20511;-72
2023/04/13 01:46:03;;;;;;;2.33;2.10;;;;;;;5.78;100.00;99678.59;4981629;28;20269;-72
2023/04/13 01:48:41;;;;;;;3.53;2.80;;;;;;;5.76;100.00;99675.34;4964427;28;20605;-72
2023/04/13 01:51:21;;;;;;;2.80;2.30;;;;;;;5.35;100.00;99611.44;4979605;28;20474;-72
2023/04/13 01:53:55;;;;;;;3.57;2.47;;;;;;;5.81;100.00;99678.22;4978618;28;20461;-72
2023/04/13 01:56:25;;;;;;;4.20;2.70;;;;;;;5.72;100.00;99674.06;4980575;28;21005;-72
2023/04/13 01:58:59;;;;;;;3.37;2.50;;;;;;;5.89;100.00;99674.59;4963564;28;20448;-72
2023/04/13 02:01:25;;;;;;;3.90;2.60;;;;;;;5.38;100.00;99613.69;4963395;28;20499;-72
2023/04/13 02:03:51;;;;;;;4.70;2.70;;;;;;;5.72;100.00;99670.59;4980040;28;20511;-72
2023/04/13 02:06:17;;;;;;;3.10;2.80;;;;;;;5.12;100.00;99585.94;4980365;28;20445;-72
2023/04/13 02:08:44;;;;;;;3.60;2.70;;;;;;;5.83;100.00;99675.38;4979770;28;20467;-72
2023/04/13 02:11:11;;;;;;;4.23;2.37;;;;;;;5.19;100.00;99594.78;4963443;28;20281;-72
2023/04/13 02:13:37;;;;;;;2.63;2.40;;;;;;;5.73;100.00;99654.44;4962958;28;21088;-72
2023/04/13 02:16:03;;;;;;;4.10;3.00;;;;;;;5.35;100.00;99608.78;4980929;28;20452;-71
2023/04/13 02:18:29;;;;;;;5.83;2.87;;;;;;;5.12;100.00;99596.56;4979384;28;20197;-72
2023/04/13 02:21:12;;;;;;;3.80;2.47;;;;;;;5.20;100.00;99564.50;4979205;28;20536;-72
2023/04/13 02:23:40;;;;;;;3.30;2.70;;;;;;;5.82;100.00;99668.41;4980303;28;20472;-71
2023/04/13 02:26:11;;;;;;;4.50;2.40;;;;;;;5.85;100.00;99641.41;4977895;28;20446;-71
2023/04/13 02:28:37;;;;;;;3.53;2.23;;;;;;;5.84;100.00;99642.41;4961268;28;20821;-72
2023/04/13 02:31:04;;;;;;;3.13;2.40;;;;;;;5.49;100.00;99559.16;4977948;28;20476;-72
2023/04/13 02:33:30;;;;;;;3.20;2.20;;;;;;;5.85;100.00;99625.44;4961663;28;20634;-71
2023/04/13 02:36:01;;;;;;;3.83;2.30;;;;;;;5.32;100.00;99524.94;4978650;28;20468;-72
2023/04/13 02:38:27;;;;;;;5.30;2.20;;;;;;;5.24;100.00;99521.59;4961507;28;20480;-72
2023/04/13 02:41:02;;;;;;;2.20;1.93;;;;;;;5.86;100.00;99595.13;4980841;28;20436;-72
2023/04/13 02:43:27;;;;;;;3.33;1.80;;;;;;;5.47;100.00;99543.41;4964231;28;21046;-72
2023/04/13 02:45:54;;;;;;;3.40;2.30;;;;;;;5.66;100.00;99605.69;4980033;28;20473;-72
2023/04/13 02:48:20;;;;;;;3.63;2.30;;;;;;;5.74;100.00;99578.91;4980573;28;20192;-72
2023/04/13 02:50:46;;;;;;;3.97;2.00;;;;;;;5.84;100.00;99570.56;4963918;28;21018;-72
2023/04/13 02:53:11;;;;;;;4.23;2.40;;;;;;;5.35;100.00;99499.75;4966775;28;20449;-72
2023/04/13 02:55:37;;;;;;;2.87;1.90;;;;;;;5.95;100.00;99569.19;4985573;28;20186;-72
2023/04/13 02:58:05;;;;;;;3.63;2.17;;;;;;;5.77;100.00;99565.22;4963352;28;20186;-72
2023/04/13 03:00:31;;;;;;;2.67;1.93;;;;;;;5.90;100.00;99553.78;4963028;28;20966;-72
2023/04/13 03:02:57;;;;;;;2.80;1.80;;;;;;;5.80;100.00;99562.16;4964090;28;20893;-72
2023/04/13 03:05:23;;;;;;;5.70;2.40;;;;;;;5.53;100.00;99499.25;4979959;28;20461;-72
2023/04/13 03:07:48;;;;;;;2.20;2.00;;;;;;;5.79;100.00;99549.06;4979501;28;20228;-72
2023/04/13 03:10:13;;;;;;;4.03;2.27;;;;;;;5.13;100.00;99461.84;4978425;28;20193;-72
2023/04/13 03:12:39;;;;;;;3.23;2.10;;;;;;;5.43;100.00;99503.06;4964377;28;20233;-73
2023/04/13 03:15:09;;;;;;;2.43;2.10;;;;;;;5.71;100.00;99541.25;4979743;28;20185;-72
2023/04/13 03:17:39;;;;;;;5.63;2.30;;;;;;;4.67;100.00;99383.50;4983873;28;20207;-72
2023/04/13 03:20:10;;;;;;;2.90;2.47;;;;;;;5.82;100.00;99522.06;4968196;28;20445;-72
2023/04/13 03:22:36;;;;;;;3.47;2.27;;;;;;;5.45;100.00;99486.94;4971223;28;20433;-73
2023/04/13 03:25:01;;;;;;;2.70;2.20;;;;;;;5.62;100.00;99536.09;4983576;28;20806;-73
2023/04/13 03:27:27;;;;;;;2.17;1.97;;;;;;;5.48;100.00;99518.44;4967529;28;20269;-72
2023/04/13 03:29:52;;;;;;;4.23;2.60;;;;;;;5.25;100.00;99470.06;4966358;28;20193;-72
2023/04/13 03:32:18;;;;;;;4.80;2.03;;;;;;;5.10;100.00;99433.81;4983434;28;20355;-72
2023/04/13 03:34:43;;;;;;;4.03;2.13;;;;;;;5.32;100.00;99452.28;4983334;28;20210;-72
2023/04/13 03:37:10;;;;;;;2.40;2.20;;;;;;;4.97;100.00;99407.16;4982294;28;20191;-72
2023/04/13 03:39:35;;;;;;;3.07;2.37;;;;;;;5.75;100.00;99540.63;4984262;28;20280;-72
2023/04/13 03:42:02;;;;;;;3.20;2.47;;;;;;;5.42;100.00;99497.97;4981861;28;20898;-73
2023/04/13 03:44:28;;;;;;;3.47;2.03;;;;;;;5.10;100.00;99433.00;4964782;28;20216;-72
2023/04/13 03:46:54;;;;;;;3.57;2.20;;;;;;;5.32;100.00;99470.91;4970361;28;20437;-72
2023/04/13 03:49:19;;;;;;;2.97;2.03;;;;;;;5.05;100.00;99406.19;4982095;28;20467;-72
2023/04/13 03:51:45;;;;;;;3.10;2.20;;;;;;;5.32;100.00;99447.81;4983968;28;20213;-73
2023/04/13 03:54:10;;;;;;;2.57;2.33;;;;;;;5.36;100.00;99464.19;4964824;28;20213;-72
2023/04/13 03:56:36;;;;;;;3.00;2.43;;;;;;;5.63;100.00;99521.78;4967014;28;20460;-72
2023/04/13 03:59:02;;;;;;;2.63;2.30;;;;;;;5.68;100.00;99512.38;4984271;28;20187;-72
2023/04/13 04:01:28;;;;;;;2.57;2.37;;;;;;;5.64;100.00;99526.09;4964066;28;20186;-72
2023/04/13 04:03:55;;;;;;;4.23;2.27;;;;;;;5.69;100.00;99527.31;4979783;28;20471;-72
2023/04/13 04:06:22;;;;;;;6.60;2.27;;;;;;;5.65;100.00;99527.72;4965319;28;20640;-72
2023/04/13 04:08:48;;;;;;;2.87;2.30;;;;;;;5.44;100.00;99520.69;4981988;28;20438;-72
2023/04/13 04:11:15;;;;;;;5.10;3.30;;;;;;;4.62;100.00;99366.53;4963894;28;20615;-72
2023/04/13 04:13:41;;;;;;;6.30;2.50;;;;;;;5.65;100.00;99519.75;4967135;28;20480;-72
2023/04/13 04:16:07;;;;;;;3.90;2.77;;;;;;;5.64;100.00;99533.22;4983301;28;20874;-73
2023/04/13 04:18:33;;;;;;;3.70;2.60;;;;;;;5.16;100.00;99458.78;4964644;28;20201;-73
2023/04/13 04:21:01;;;;;;;3.20;2.60;;;;;;;5.10;100.00;99438.31;4982488;28;20812;-72
2023/04/13 04:23:27;;;;;;;6.93;2.67;;;;;;;5.25;100.00;99472.72;4975389;28;20471;-72
2023/04/13 04:25:53;;;;;;;4.20;2.30;;;;;;;5.48;100.00;99542.38;4967289;28;20447;-73
2023/04/13 04:28:18;;;;;;;2.40;2.20;;;;;;;5.46;100.00;99493.88;4961335;28;20440;-72
2023/04/13 04:30:44;;;;;;;2.60;2.40;;;;;;;5.03;100.00;99458.69;4983611;28;20464;-72
2023/04/13 04:33:13;;;;;;;2.83;2.50;;;;;;;5.07;100.00;99447.50;4967654;28;20768;-72
2023/04/13 04:35:42;;;;;;;3.00;2.47;;;;;;;5.72;100.00;99566.84;4964830;28;21069;-72
2023/04/13 04:38:08;;;;;;;4.03;2.00;;;;;;;5.41;100.00;99509.63;4965797;28;20445;-73
2023/04/13 04:40:36;;;;;;;2.90;1.93;;;;;;;5.79;100.00;99567.69;4984720;28;20872;-72
2023/04/13 04:43:03;;;;;;;2.23;2.03;;;;;;;5.89;100.00;99576.13;4964505;28;20445;-72
2023/04/13 04:45:31;;;;;;;3.30;2.10;;;;;;;5.87;100.00;99581.66;4982968;28;20480;-72
2023/04/13 04:47:57;;;;;;;3.17;2.03;;;;;;;5.07;100.00;99460.78;4963878;28;20839;-73
2023/04/13 04:50:23;;;;;;;2.40;1.83;;;;;;;5.78;100.00;99571.34;4965731;28;20584;-72
2023/04/13 04:52:48;;;;;;;6.47;2.47;;;;;;;5.91;100.00;99602.53;4966744;28;20232;-72
2023/04/13 04:55:14;;;;;;;2.00;1.80;;;;;;;5.78;100.00;99540.25;4981408;28;20186;-72
2023/04/13 04:57:39;;;;;;;5.20;2.77;;;;;;;5.60;100.00;99534.66;4984329;28;20208;-73
2023/04/13 05:00:09;;;;;;;5.13;2.37;;;;;;;5.39;100.00;99515.13;4983863;28;20182;-72
2023/04/13 05:02:35;;;;;;;3.20;1.97;;;;;;;6.01;100.00;99598.50;4965839;28;20181;-73
2023/04/13 05:05:00;;;;;;;3.00;2.40;;;;;;;5.43;100.00;99534.97;4984173;28;20433;-72
2023/04/13 05:07:28;;;;;;;3.77;2.80;;;;;;;5.15;100.00;99502.31;4981393;28;20437;-73
2023/04/13 05:09:54;;;;;;;4.00;2.73;;;;;;;5.48;100.00;99553.00;4964859;28;20189;-72
2023/04/13 05:12:19;;;;;;;3.13;2.63;;;;;;;5.98;100.00;99622.84;4983910;28;20479;-72
2023/04/13 05:14:47;;;;;;;4.37;3.00;;;;;;;5.10;100.00;99504.75;4981711;28;20213;-72
2023/04/13 05:17:18;;;;;;;3.40;2.10;;;;;;;5.35;100.00;99524.53;4966150;28;20193;-72
2023/04/13 05:19:44;;;;;;;3.27;2.57;;;;;;;5.44;100.00;99565.91;4978516;28;20436;-72
2023/04/13 05:22:14;;;;;;;3.90;2.57;;;;;;;5.33;100.00;99552.34;4964215;28;20855;-72
2023/04/13 05:24:39;;;;;;;2.53;2.33;;;;;;;5.69;100.00;99585.84;4982276;28;20522;-72
2023/04/13 05:27:08;;;;;;;2.73;2.13;;;;;;;5.77;100.00;99623.75;4961502;28;20445;-72
2023/04/13 05:29:34;;;;;;;5.33;2.23;;;;;;;5.60;100.00;99586.00;4963996;28;20190;-72
2023/04/13 05:32:00;;;;;;;3.50;2.50;;;;;;;5.27;100.00;99564.56;4980717;28;21000;-72
2023/04/13 05:34:26;;;;;;;4.17;3.10;;;;;;;5.84;100.00;99640.59;4961348;28;20445;-70
2023/04/13 05:36:52;;;;;;;5.50;2.90;;;;;;;5.71;100.00;99640.50;4980828;28;20850;-70
2023/04/13 05:39:18;;;;;;;6.70;3.20;;;;;;;5.75;100.00;99652.38;4980107;28;20237;-71
2023/04/13 05:41:44;;;;;;;8.07;2.80;;;;;;;5.78;100.00;99651.19;4982205;28;20487;-70
2023/04/13 05:44:09;;;;;;;7.70;2.77;;;;;;;5.52;100.00;99575.53;4981231;28;20452;-70
2023/04/13 05:46:35;;;;;;;3.97;2.10;;;;;;;6.08;100.00;99710.34;4981554;28;20184;-71
2023/04/13 05:49:00;;;;;;;4.27;2.33;;;;;;;6.11;100.00;99718.75;4980725;28;20182;-71
2023/04/13 05:51:30;;;;;;;2.50;2.30;;;;;;;5.49;100.00;99645.06;4981615;28;20217;-71
2023/04/13 05:53:56;;;;;;;3.53;2.30;;;;;;;6.17;100.00;99727.81;4980531;28;20742;-71
2023/04/13 05:56:22;;;;;;;4.60;2.00;;;;;;;5.57;100.00;99655.56;4981629;28;20425;-70
2023/04/13 05:58:48;;;;;;;6.23;1.70;;;;;;;5.65;100.00;99662.59;4964918;28;20814;-70
2023/04/13 06:01:14;;;;;;;6.70;2.00;;;;;;;5.67;100.00;99657.91;4981322;28;20429;-70
2023/04/13 06:03:39;;;;;;;3.47;2.23;;;;;;;6.20;100.00;99732.72;4963676;28;20457;-70
2023/04/13 06:06:05;;;;;;;4.40;2.57;;;;;;;6.05;100.00;99742.69;4963835;28;20197;-70
2023/04/13 06:08:33;;;;;;;3.50;2.13;;;;;;;5.28;100.00;99623.88;4980792;28;20186;-70
2023/04/13 06:10:59;;;;;;;6.90;2.80;;;;;;;6.05;100.00;99748.84;4980953;28;20472;-70
2023/04/13 06:13:25;;;;;;;3.50;2.20;;;;;;;5.65;100.00;99670.56;4980519;28;20454;-70
2023/04/13 06:15:51;;;;;;;4.70;2.63;;;;;;;6.31;100.00;99773.97;4964096;28;20200;-70
2023/04/13 06:18:17;;;;;;;3.17;2.33;;;;;;;6.35;100.00;99767.22;4963384;28;20182;-70
2023/04/13 06:20:42;;;;;;;3.70;2.90;;;;;;;6.25;100.00;99783.56;4980762;28;20444;-70
2023/04/13 06:23:08;;;;;;;3.53;3.10;;;;;;;6.01;100.00;99742.25;4980480;28;20233;-70
2023/04/13 06:25:34;;;;;;;7.93;2.90;;;;;;;6.28;100.00;99761.06;4980307;28;20201;-70
2023/04/13 06:28:01;;;;;;;2.93;2.50;;;;;;;6.37;100.00;99789.16;4964721;28;20193;-70
2023/04/13 06:30:27;;;;;;;5.60;3.70;;;;;;;6.02;100.00;99741.25;4980395;28;20926;-70
2023/04/13 06:32:52;;;;;;;3.77;2.93;;;;;;;6.50;100.00;99785.72;4980156;28;20453;-70
2023/04/13 06:35:18;;;;;;;3.63;3.30;;;;;;;6.45;100.00;99786.34;4962429;28;20659;-71
2023/04/13 06:37:44;;;;;;;4.70;3.40;;;;;;;5.98;100.00;99725.84;4980491;28;20181;-71
2023/04/13 06:40:11;;;;;;;6.83;3.40;;;;;;;6.55;100.00;99821.41;4962614;28;20194;-70
2023/04/13 06:42:38;;;;;;;5.10;3.53;;;;;;;5.78;100.00;99704.41;4968593;28;20425;-71
2023/04/13 06:45:05;;;;;;;5.53;3.27;;;;;;;6.48;100.00;99769.94;4962706;28;20515;-71
2023/04/13 06:47:31;;;;;;;4.77;3.53;;;;;;;6.59;100.00;99807.69;4963049;28;20479;-71
2023/04/13 06:49:56;;;;;;;8.83;3.53;;;;;;;6.29;100.00;99752.84;4963458;28;20576;-71
2023/04/13 06:52:21;;;;;;;4.90;2.50;;;;;;;6.68;100.00;99811.81;4966033;28;20213;-71
2023/04/13 06:54:47;;;;;;;3.37;2.93;;;;;;;6.15;100.00;99726.34;4984337;28;20193;-70
2023/04/13 06:57:12;;;;;;;3.97;3.20;;;;;;;6.57;100.00;99789.25;4984007;28;20196;-71
2023/04/13 06:59:38;;;;;;;4.50;2.90;;;;;;;5.99;100.00;99693.72;4984401;28;20294;-70
2023/04/13 07:02:03;;;;;;;6.17;3.00;;;;;;;6.65;100.00;99809.56;4985689;28;20186;-70
2023/04/13 07:04:29;;;;;;;7.20;3.37;;;;;;;6.83;100.00;99823.19;4983704;28;20210;-70
2023/04/13 07:06:54;;;;;;;10.90;3.20;;;;;;;6.53;100.00;99754.16;4983920;28;20212;-70
2023/04/13 07:09:20;;;;;;;7.27;3.07;;;;;;;6.91;100.00;99807.00;4966977;28;20310;-70
2023/04/13 07:11:45;;;;;;;7.63;2.80;;;;;;;6.46;100.00;99707.22;4984089;28;20594;-71
2023/04/13 07:14:10;;;;;;;5.00;3.33;;;;;;;6.72;100.00;99715.31;4981335;28;20206;-70
2023/04/13 07:16:36;;;;;;;3.60;2.60;;;;;;;7.15;100.00;99772.84;4983700;28;20616;-70
2023/04/13 07:19:02;;;;;;;7.27;2.73;;;;;;;7.29;100.00;99816.31;4983631;28;20196;-71
2023/04/13 07:21:27;;;;;;;7.97;2.90;;;;;;;7.16;100.00;99809.94;4967294;28;20188;-70
2023/04/13 07:23:53;;;;;;;7.43;2.80;;;;;;;7.13;100.00;99815.69;4966275;28;20621;-71
2023/04/13 07:26:18;;;;;;;7.30;2.90;;;;;;;6.92;100.00;99800.66;4983667;28;20182;-71
2023/04/13 07:28:44;;;;;;;7.70;2.63;;;;;;;7.17;100.00;99813.44;4984164;28;20281;-70
2023/04/13 07:31:10;;;;;;;5.20;2.33;;;;;;;7.08;100.00;99817.31;4966122;28;20344;-70
2023/04/13 07:33:36;;;;;;;6.07;2.40;;;;;;;6.51;100.00;99736.78;4966466;28;20206;-70
2023/04/13 07:36:01;;;;;;;5.23;2.60;;;;;;;7.09;100.00;99811.78;4984425;28;20441;-71
2023/04/13 07:38:27;;;;;;;7.67;3.10;;;;;;;6.66;100.00;99744.59;4983663;28;20615;-70
2023/04/13 07:40:52;;;;;;;7.43;3.37;;;;;;;7.16;100.00;99814.47;4982820;28;20197;-70
2023/04/13 07:43:18;;;;;;;5.37;2.47;;;;;;;7.36;100.00;99833.19;4984264;28;20209;-70
2023/04/13 07:45:43;;;;;;;6.00;2.20;;;;;;;7.29;100.00;99841.19;4983811;28;20186;-70
2023/04/13 07:48:08;;;;;;;7.27;2.80;;;;;;;7.25;100.00;99839.91;4983672;28;20198;-70
2023/04/13 07:50:43;;;;;;;4.83;2.73;;;;;;;7.19;100.00;99816.72;4982733;28;20190;-70
2023/04/13 07:53:08;;;;;;;3.50;2.30;;;;;;;7.42;100.00;99853.72;4983128;28;20273;-70
2023/04/13 07:55:36;;;;;;;6.23;2.60;;;;;;;7.28;100.00;99852.03;4983229;28;20420;-70
2023/04/13 07:58:01;;;;;;;9.83;2.10;;;;;;;7.48;100.00;99859.06;4968261;28;20282;-70
2023/04/13 08:00:27;;;;;;;4.70;2.80;;;;;;;7.56;100.00;99863.38;4966014;28;20437;-70
2023/04/13 08:02:56;;;;;;;5.07;2.67;;;;;;;7.29;100.00;99841.19;4964998;28;20206;-70
2023/04/13 08:05:21;;;;;;;5.43;2.60;;;;;;;7.19;100.00;99811.41;4965006;28;20213;-71
2023/04/13 08:07:47;;;;;;;6.63;3.00;;;;;;;6.93;100.00;99804.97;4987971;28;20432;-71
2023/04/13 08:10:13;;;;;;;7.57;3.00;;;;;;;7.02;100.00;99805.59;4966443;28;20745;-71
2023/04/13 08:12:39;;;;;;;5.50;3.10;;;;;;;7.52;100.00;99882.66;4983672;28;20607;-72
2023/04/13 08:15:05;;;;;;;6.70;2.40;;;;;;;7.54;100.00;99884.13;4965029;28;20437;-71
2023/04/13 08:17:31;;;;;;;5.27;2.60;;;;;;;7.52;100.00;99880.84;4982180;28;20187;-71
2023/04/13 08:19:57;;;;;;;6.20;2.60;;;;;;;7.57;100.00;99880.22;4963879;28;20437;-71
2023/04/13 08:22:22;;;;;;;7.30;2.30;;;;;;;7.16;100.00;99836.63;4981898;28;20436;-71
2023/04/13 08:24:48;;;;;;;6.93;3.43;;;;;;;6.95;100.00;99821.59;4981904;28;20718;-71
2023/04/13 08:27:13;;;;;;;10.90;2.40;;;;;;;7.36;100.00;99860.69;4965620;28;20208;-71
2023/04/13 08:29:39;;;;;;;5.93;2.97;;;;;;;7.24;100.00;99844.44;4965230;28;20664;-71
2023/04/13 08:32:04;;;;;;;4.83;2.63;;;;;;;7.67;100.00;99908.16;4983240;28;20265;-71
2023/04/13 08:34:30;;;;;;;24.13;3.90;;;;;;;7.22;100.00;99824.31;4981994;28;20281;-71
2023/04/13 08:36:56;;;;;;;5.73;2.30;;;;;;;7.16;100.00;99801.13;4965403;28;20194;-71
2023/04/13 08:39:22;;;;;;;5.10;2.40;;;;;;;7.98;100.00;99916.63;4965930;28;20185;-71
2023/04/13 08:41:47;;;;;;;3.20;1.80;;;;;;;7.45;100.00;99818.63;4982670;28;20190;-71
2023/04/13 08:44:14;;;;;;;6.20;1.80;;;;;;;7.51;100.00;99823.16;4982092;28;20957;-71
2023/04/13 08:46:43;;;;;;;7.57;1.90;;;;;;;8.04;100.00;99870.41;4965090;28;20190;-71
2023/04/13 08:49:10;;;;;;;7.93;1.97;;;;;;;8.30;100.00;99934.53;4981498;28;20437;-72
2023/04/13 08:51:37;;;;;;;11.67;2.40;;;;;;;7.65;100.00;99813.31;4982351;28;20531;-71
2023/04/13 08:54:03;;;;;;;6.33;2.10;;;;;;;7.53;100.00;99821.09;4981744;28;20489;-70
2023/04/13 08:56:29;;;;;;;5.83;2.00;;;;;;;8.31;100.00;99970.88;4982334;28;20461;-72
2023/04/13 08:59:03;;;;;;;4.47;1.60;;;;;;;8.15;100.00;99953.41;4980822;28;20269;-72
2023/04/13 09:01:31;;;;;;;3.33;1.40;;;;;;;7.65;100.00;99902.19;4964611;28;20424;-71
2023/04/13 09:04:09;;;;;;;5.33;1.67;;;;;;;7.90;100.00;99953.19;4964348;28;20485;-71
2023/04/13 09:06:39;;;;;;;3.17;1.07;;;;;;;7.18;100.00;99871.09;4963359;28;20433;-72
2023/04/13 09:09:09;;;;;;;8.60;2.00;;;;;;;7.20;100.00;99879.69;4965112;28;20437;-71
2023/04/13 09:11:36;;;;;;;5.60;1.90;;;;;;;7.64;100.00;99931.78;4982084;28;20476;-70
2023/04/13 09:14:02;;;;;;;8.23;1.67;;;;;;;7.17;100.00;99864.09;4981586;28;20965;-72
2023/04/13 09:16:27;;;;;;;8.50;1.90;;;;;;;7.78;100.00;99959.31;4982375;28;20420;-72
2023/04/13 09:18:55;;;;;;;5.70;1.70;;;;;;;7.22;100.00;99886.50;4981741;28;20920;-72
2023/04/13 09:21:21;;;;;;;7.93;1.77;;;;;;;7.71;100.00;99945.94;4964135;28;20193;-72
2023/04/13 09:23:56;;;;;;;10.17;2.00;;;;;;;7.44;100.00;99876.50;4964387;28;20475;-72
2023/04/13 09:26:21;;;;;;;4.70;1.63;;;;;;;8.05;100.00;99960.19;4982163;28;20512;-71
2023/04/13 09:28:48;;;;;;;3.90;1.37;;;;;;;7.76;100.00;99870.59;4964699;28;20467;-71
2023/04/13 09:31:15;;;;;;;4.27;1.40;;;;;;;8.35;100.00;99963.28;4986694;28;20213;-72
2023/04/13 09:33:49;;;;;;;4.17;1.10;;;;;;;7.87;100.00;99870.81;4982287;28;20947;-71
2023/04/13 09:36:17;;;;;;;2.50;1.10;;;;;;;8.76;100.00;99976.44;4963000;28;20472;-72
2023/04/13 09:38:46;;;;;;;2.27;0.90;;;;;;;8.92;100.00;99983.22;4964078;28;20891;-72
2023/04/13 09:41:11;;;;;;;5.00;1.20;;;;;;;8.81;100.00;99997.22;4982204;28;20432;-72
2023/04/13 09:43:38;;;;;;;3.20;1.10;;;;;;;8.38;100.00;99939.66;4981228;28;20449;-72
2023/04/13 09:46:13;;;;;;;2.90;1.03;;;;;;;7.91;100.00;99933.47;4981181;28;20196;-71
2023/04/13 09:48:39;;;;;;;2.80;1.27;;;;;;;8.69;100.00;100004.22;4990945;23;20580;-71
2023/04/13 09:51:06;;;;;;;1.60;1.10;;;;;;;8.07;100.00;99958.13;4981727;28;20469;-71
2023/04/13 09:53:41;;;;;;;3.13;1.43;;;;;;;8.20;100.00;100016.91;4980477;28;20428;-71
2023/04/13 09:56:07;;;;;;;4.33;0.93;;;;;;;8.02;100.00;99956.06;4981548;28;20489;-71
2023/04/13 09:58:40;;;;;;;3.03;1.23;;;;;;;7.46;100.00;99842.44;4957501;28;20453;-71
2023/04/13 10:01:06;;;;;;;4.03;1.83;;;;;;;8.18;100.00;99948.69;4968634;28;20437;-71
2023/04/13 10:03:33;;;;;;;2.30;1.10;;;;;;;8.20;100.00;99914.59;4970671;28;20433;-71
2023/04/13 10:05:59;;;;;;;4.13;1.30;;;;;;;7.81;100.00;99909.03;4952320;28;20657;-71
2023/04/13 10:08:25;;;;;;;2.83;1.03;;;;;;;7.90;100.00;99901.63;4969430;28;20596;-71
2023/04/13 10:10:51;;;;;;;2.33;1.20;;;;;;;8.55;100.00;99982.84;4969800;28;20561;-71
2023/04/13 10:13:30;;;;;;;4.10;1.30;;;;;;;8.90;100.00;99981.78;4970862;28;20212;-70
2023/04/13 10:16:35;;;;;;;3.57;1.43;;;;;;;9.04;100.00;99991.41;4970228;28;20185;-70
2023/04/13 10:19:10;;;;;;;2.73;1.40;;;;;;;9.08;100.00;99938.31;4944326;28;20461;-70
2023/04/13 10:21:43;;;;;;;2.47;1.10;;;;;;;9.31;100.00;100010.06;4970159;28;20421;-71
2023/04/13 10:24:11;;;;;;;2.20;1.00;;;;;;;7.89;100.00;99836.72;4967922;28;20481;-71
2023/04/13 10:26:37;;;;;;;2.80;1.00;;;;;;;8.74;100.00;100050.72;4969832;28;20440;-71
2023/04/13 10:29:03;;;;;;;2.00;0.77;;;;;;;7.85;100.00;99906.75;4970445;28;20446;-71
2023/04/13 10:31:36;;;;;;;2.93;0.80;;;;;;;7.87;100.00;99950.91;4969911;28;20967;-71
2023/04/13 10:34:02;;;;;;;2.43;0.73;;;;;;;7.58;100.00;99938.75;4969075;28;20928;-71
2023/04/13 10:36:37;;;;;;;2.20;0.70;;;;;;;8.07;100.00;100076.47;4970335;28;20437;-71
2023/04/13 10:39:03;;;;;;;1.33;0.77;;;;;;;7.99;100.00;100065.97;4970500;28;21005;-71
2023/04/13 10:41:28;;;;;;;2.80;0.90;;;;;;;7.27;100.00;99981.94;4969848;28;20433;-69
2023/04/13 10:44:20;;;;;;;2.30;0.60;;;;;;;6.55;100.00;99920.00;4969021;28;20190;-71
2023/04/13 10:46:49;;;;;;;2.83;0.97;;;;;;;6.69;100.00;99976.06;4964255;28;20286;-71
2023/04/13 10:49:15;;;;;;;1.40;0.73;;;;;;;6.58;100.00;99934.78;4967869;28;20480;-71
2023/04/13 10:51:45;;;;;;;2.63;0.70;;;;;;;7.41;100.00;100046.84;4951479;28;20470;-71
2023/04/13 10:54:12;;;;;;;3.83;0.67;;;;;;;6.50;100.00;99933.06;4968185;28;20554;-70
2023/04/13 10:56:39;;;;;;;3.27;0.60;;;;;;;7.17;100.00;100061.47;4968092;28;20429;-70
2023/04/13 10:59:04;;;;;;;3.37;0.80;;;;;;;6.57;100.00;99925.13;4967090;28;20453;-70
2023/04/13 11:01:30;;;;;;;3.33;1.07;;;;;;;6.98;100.00;99967.81;4967951;28;20425;-71
2023/04/13 11:04:01;;;;;;;3.63;0.80;;;;;;;7.23;100.00;99948.66;4968073;28;20277;-71
2023/04/13 11:06:27;;;;;;;2.43;0.77;;;;;;;7.78;100.00;100016.22;4968542;28;20430;-72
2023/04/13 11:09:00;;;;;;;5.93;0.80;;;;;;;8.08;100.00;99989.16;4968150;28;20457;-72
2023/04/13 11:11:26;;;;;;;1.17;0.50;;;;;;;7.60;100.00;99991.91;4951170;28;20214;-73
2023/04/13 11:13:52;;;;;;;1.47;0.60;;;;;;;7.32;100.00;99946.63;4967729;28;20437;-72
2023/04/13 11:16:17;;;;;;;2.20;0.70;;;;;;;8.25;100.00;100072.41;4967560;28;20864;-71
2023/04/13 11:18:42;;;;;;;1.57;0.93;;;;;;;7.71;100.00;99988.66;4967992;28;20205;-71
2023/04/13 11:21:15;;;;;;;2.30;0.70;;;;;;;7.75;100.00;99955.19;4966395;28;20191;-71
2023/04/13 11:23:41;;;;;;;2.67;0.70;;;;;;;8.80;100.00;100049.06;4968633;28;20224;-72
2023/04/13 11:26:07;;;;;;;3.13;0.90;;;;;;;8.48;100.00;100024.78;4967306;28;20450;-71
2023/04/13 11:28:42;;;;;;;3.73;1.20;;;;;;;9.02;100.00;100085.22;4968907;28;20199;-71
2023/04/13 11:31:10;;;;;;;3.93;0.70;;;;;;;9.25;100.00;100097.38;4949883;28;20521;-71
2023/04/13 11:33:35;;;;;;;1.40;0.70;;;;;;;8.31;100.00;99949.50;4966166;28;20421;-71